createdAt,value
2023-05-17T00:02:15.341Z,11.05
2023-05-17T00:04:48.975Z,15.27
2023-05-17T00:07:19.819Z,10.65
2023-05-17T00:09:50.716Z,10.68
2023-05-17T00:12:21.520Z,12.80
2023-05-17T00:14:53.879Z,12.38
2023-05-17T00:17:24.616Z,13.20
2023-05-17T00:19:58.222Z,13.10
2023-05-17T00:22:29.016Z,12.32
2023-05-17T00:24:59.914Z,11.55
2023-05-17T00:27:30.767Z,10.32
2023-05-17T00:30:01.794Z,12.68
2023-05-17T00:32:35.916Z,13.30
2023-05-17T00:35:10.367Z,12.15
2023-05-17T00:37:41.492Z,10.95
2023-05-17T00:40:14.076Z,9.55
2023-05-17T00:42:45.115Z,11.80
2023-05-17T00:45:16.462Z,7.93
2023-05-17T00:47:47.563Z,13.70
2023-05-17T00:50:21.421Z,8.32
2023-05-17T00:55:24.777Z,14.23
2023-05-17T00:57:56.344Z,12.88
2023-05-17T01:00:27.587Z,10.60
2023-05-17T01:02:58.406Z,14.57
2023-05-17T01:05:32.822Z,14.48
2023-05-17T01:08:03.576Z,10.97
2023-05-17T01:10:43.390Z,19.67
2023-05-17T01:13:21.630Z,11.65
2023-05-17T01:16:00.353Z,14.55
2023-05-17T01:18:38.937Z,10.40
2023-05-17T01:21:29.473Z,13.60
2023-05-17T01:24:20.612Z,10.52
2023-05-17T01:26:56.279Z,14.65
2023-05-17T01:29:32.036Z,12.00
2023-05-17T01:34:33.616Z,14.52
2023-05-17T01:37:04.541Z,12.77
2023-05-17T01:39:35.456Z,12.10
2023-05-17T01:42:17.170Z,13.02
2023-05-17T01:44:54.077Z,14.43
2023-05-17T01:47:36.997Z,11.40
2023-05-17T01:50:11.018Z,12.63
2023-05-17T01:52:47.309Z,11.90
2023-05-17T01:55:26.707Z,13.68
2023-05-17T01:58:01.054Z,12.40
2023-05-17T02:00:33.447Z,17.20
2023-05-17T02:03:04.482Z,12.57
2023-05-17T02:05:35.484Z,13.57
2023-05-17T02:08:06.340Z,11.60
2023-05-17T02:10:37.221Z,11.50
2023-05-17T02:13:10.875Z,13.68
2023-05-17T02:15:41.923Z,11.43
2023-05-17T02:18:13.808Z,13.00
2023-05-17T02:21:04.465Z,12.43
2023-05-17T02:23:35.350Z,17.40
2023-05-17T02:26:06.208Z,11.98
2023-05-17T02:28:40.762Z,12.00
2023-05-17T02:31:11.665Z,15.45
2023-05-17T02:33:42.722Z,12.43
2023-05-17T02:36:13.624Z,15.38
2023-05-17T02:38:44.482Z,8.90
2023-05-17T02:41:16.524Z,13.13
2023-05-17T02:43:50.233Z,11.25
2023-05-17T02:46:21.844Z,11.02
2023-05-17T02:48:52.869Z,11.57
2023-05-17T02:51:23.652Z,14.73
2023-05-17T02:53:54.629Z,13.93
2023-05-17T02:56:25.588Z,11.48
2023-05-17T02:59:01.684Z,10.07
2023-05-17T03:01:32.894Z,10.30
2023-05-17T03:04:04.777Z,10.80
2023-05-17T03:06:35.827Z,13.48
2023-05-17T03:09:07.359Z,14.30
2023-05-17T03:11:38.688Z,12.20
2023-05-17T03:14:17.163Z,12.23
2023-05-17T03:16:47.936Z,13.65
2023-05-17T03:19:18.997Z,13.25
2023-05-17T03:21:50.460Z,13.20
2023-05-17T03:24:22.479Z,12.85
2023-05-17T03:26:54.569Z,13.52
2023-05-17T03:29:28.924Z,18.83
2023-05-17T03:31:59.697Z,15.73
2023-05-17T03:34:30.855Z,13.48
2023-05-17T03:37:01.657Z,16.48
2023-05-17T03:39:32.654Z,15.10
2023-05-17T03:42:03.869Z,15.32
2023-05-17T03:44:39.254Z,11.98
2023-05-17T03:47:10.212Z,11.80
2023-05-17T03:49:41.168Z,11.55
2023-05-17T03:52:12.054Z,14.00
2023-05-17T03:54:42.856Z,11.65
2023-05-17T03:57:14.280Z,12.05
2023-05-17T03:59:48.079Z,14.35
2023-05-17T04:02:21.337Z,13.98
2023-05-17T04:04:53.460Z,9.00
2023-05-17T04:07:25.310Z,14.05
2023-05-17T04:09:59.159Z,17.17
2023-05-17T04:12:36.336Z,13.77
2023-05-17T04:15:10.926Z,10.82
2023-05-17T04:17:43.619Z,13.45
2023-05-17T04:20:16.004Z,13.25
2023-05-17T04:22:47.176Z,16.75
2023-05-17T04:25:19.191Z,17.63
2023-05-17T04:27:51.410Z,17.98
2023-05-17T04:30:26.403Z,21.27
2023-05-17T04:32:57.287Z,22.40
2023-05-17T04:35:28.656Z,31.20
2023-05-17T04:38:00.153Z,27.95
2023-05-17T04:40:31.334Z,25.10
2023-05-17T04:43:03.131Z,25.95
2023-05-17T04:45:38.097Z,29.30
2023-05-17T04:48:09.387Z,29.25
2023-05-17T04:50:40.410Z,64.72
2023-05-17T04:53:11.506Z,33.50
2023-05-17T04:55:42.438Z,17.38
2023-05-17T04:58:13.516Z,28.58
2023-05-17T05:00:47.899Z,17.85
2023-05-17T05:03:18.888Z,20.02
2023-05-17T05:05:50.514Z,54.80
2023-05-17T05:08:21.688Z,42.30
2023-05-17T05:10:52.710Z,39.13
2023-05-17T05:13:25.852Z,22.17
2023-05-17T05:16:00.870Z,29.55
2023-05-17T05:18:32.781Z,28.45
2023-05-17T05:21:04.018Z,28.63
2023-05-17T05:23:35.230Z,13.13
2023-05-17T05:26:07.325Z,32.17
2023-05-17T05:28:38.374Z,21.42
2023-05-17T05:31:12.025Z,22.10
2023-05-17T05:33:48.202Z,38.17
2023-05-17T05:36:19.179Z,25.10
2023-05-17T05:38:54.138Z,29.52
2023-05-17T05:41:25.721Z,26.98
2023-05-17T05:43:56.606Z,20.95
2023-05-17T05:46:31.200Z,26.60
2023-05-17T05:49:02.782Z,19.88
2023-05-17T05:51:35.737Z,18.02
2023-05-17T05:54:06.716Z,41.55
2023-05-17T05:56:37.850Z,23.02
2023-05-17T05:59:10.216Z,21.00
2023-05-17T06:01:44.354Z,25.98
2023-05-17T06:04:15.185Z,27.75
2023-05-17T06:06:46.220Z,17.92
2023-05-17T06:09:17.354Z,13.60
2023-05-17T06:11:48.132Z,12.65
2023-05-17T06:14:19.059Z,23.23
2023-05-17T06:16:52.535Z,21.48
2023-05-17T06:19:23.372Z,19.67
2023-05-17T06:21:54.353Z,17.75
2023-05-17T06:24:25.185Z,12.65
2023-05-17T06:26:56.125Z,13.60
2023-05-17T06:29:27.500Z,13.60
2023-05-17T06:32:01.129Z,14.95
2023-05-17T06:34:34.536Z,21.33
2023-05-17T06:37:05.542Z,19.40
2023-05-17T06:39:36.290Z,12.23
2023-05-17T06:42:07.892Z,15.43
2023-05-17T06:44:40.279Z,26.15
2023-05-17T06:47:14.036Z,12.95
2023-05-17T06:49:44.845Z,17.13
2023-05-17T06:52:15.705Z,14.15
2023-05-17T06:54:46.686Z,13.20
2023-05-17T06:57:17.734Z,14.60
2023-05-17T06:59:48.849Z,13.43
2023-05-17T07:02:22.530Z,12.77
2023-05-17T07:04:53.417Z,15.15
2023-05-17T07:07:24.332Z,11.50
2023-05-17T07:09:55.145Z,14.18
2023-05-17T07:12:25.990Z,16.52
2023-05-17T07:14:56.790Z,13.80
2023-05-17T07:17:30.282Z,11.93
2023-05-17T07:20:01.424Z,13.32
2023-05-17T07:22:37.187Z,19.63
2023-05-17T07:25:09.376Z,23.13
2023-05-17T07:27:40.385Z,18.65
2023-05-17T07:30:12.538Z,9.82
2023-05-17T07:32:46.045Z,12.30
2023-05-17T07:35:17.192Z,12.80
2023-05-17T07:37:49.286Z,13.45
2023-05-17T07:40:20.284Z,14.48
2023-05-17T07:42:51.286Z,19.08
2023-05-17T07:45:22.561Z,13.93
2023-05-17T07:47:56.219Z,14.98
2023-05-17T07:50:28.144Z,10.73
2023-05-17T07:52:58.955Z,17.92
2023-05-17T07:55:30.057Z,13.48
2023-05-17T07:58:01.063Z,15.68
2023-05-17T08:00:33.677Z,19.23
2023-05-17T08:03:07.652Z,16.67
2023-05-17T08:05:38.923Z,19.43
2023-05-17T08:08:09.795Z,17.83
2023-05-17T08:10:40.668Z,12.32
2023-05-17T08:13:11.486Z,10.35
2023-05-17T08:15:42.366Z,14.30
2023-05-17T08:18:15.905Z,10.85
2023-05-17T08:20:49.402Z,16.58
2023-05-17T08:23:20.175Z,15.90
2023-05-17T08:25:55.916Z,23.58
2023-05-17T08:28:26.774Z,11.30
2023-05-17T08:30:57.751Z,15.55
2023-05-17T08:33:32.325Z,15.65
2023-05-17T08:36:08.303Z,12.98
2023-05-17T08:38:39.191Z,18.83
2023-05-17T08:41:10.065Z,22.67
2023-05-17T08:43:41.220Z,16.60
2023-05-17T08:46:13.463Z,20.33
2023-05-17T08:48:50.798Z,13.88
2023-05-17T08:51:23.171Z,22.67
2023-05-17T08:53:54.002Z,17.58
2023-05-17T08:56:28.609Z,13.80
2023-05-17T08:59:00.683Z,13.40
2023-05-17T09:01:33.462Z,12.30
2023-05-17T09:04:08.503Z,8.02
2023-05-17T09:06:39.769Z,14.80
2023-05-17T09:09:10.637Z,13.45
2023-05-17T09:11:42.030Z,14.20
2023-05-17T09:14:12.810Z,7.88
2023-05-17T09:16:44.371Z,9.82
2023-05-17T09:19:21.097Z,10.32
2023-05-17T09:21:52.534Z,6.70
2023-05-17T09:24:31.250Z,10.73
2023-05-17T09:27:06.322Z,11.98
2023-05-17T09:32:16.458Z,17.60
2023-05-17T09:34:51.562Z,6.57
2023-05-17T09:37:23.114Z,11.93
2023-05-17T09:39:53.988Z,10.70
2023-05-17T09:42:29.549Z,11.82
2023-05-17T09:45:02.065Z,8.38
2023-05-17T09:47:37.912Z,14.68
2023-05-17T09:50:22.037Z,11.40
2023-05-17T09:52:54.608Z,10.27
2023-05-17T09:55:30.181Z,10.65
2023-05-17T09:58:06.765Z,8.77
2023-05-17T10:00:37.714Z,11.18
2023-05-17T10:03:10.750Z,15.27
2023-05-17T10:05:47.763Z,9.05
2023-05-17T10:08:21.066Z,12.35
2023-05-17T10:10:53.038Z,12.55
2023-05-17T10:13:27.019Z,9.52
2023-05-17T10:15:58.578Z,10.48
2023-05-17T10:18:30.465Z,10.40
2023-05-17T10:21:04.789Z,12.65
2023-05-17T10:23:36.896Z,12.23
2023-05-17T10:26:08.676Z,12.07
2023-05-17T10:28:40.571Z,12.73
2023-05-17T10:31:11.421Z,17.35
2023-05-17T10:33:44.675Z,19.48
2023-05-17T10:36:20.921Z,14.15
2023-05-17T10:38:51.948Z,12.70
2023-05-17T10:41:26.288Z,14.40
2023-05-17T10:43:58.721Z,18.55
2023-05-17T10:46:32.734Z,10.10
2023-05-17T10:49:05.014Z,10.02
2023-05-17T10:51:40.137Z,11.32
2023-05-17T10:56:44.711Z,10.77
2023-05-17T10:59:23.007Z,9.52
2023-05-17T11:02:12.150Z,13.05
2023-05-17T11:04:45.346Z,8.75
2023-05-17T11:07:29.707Z,11.27
2023-05-17T11:10:09.031Z,14.23
2023-05-17T11:12:42.361Z,13.18
2023-05-17T11:15:14.702Z,13.13
2023-05-17T11:17:54.582Z,10.15
2023-05-17T11:20:37.607Z,13.43
2023-05-17T11:23:20.025Z,14.32
2023-05-17T11:25:54.248Z,10.55
2023-05-17T11:28:26.739Z,12.57
2023-05-17T11:31:04.178Z,13.82
2023-05-17T11:33:42.506Z,14.57
2023-05-17T11:36:23.590Z,16.50
2023-05-17T11:39:15.866Z,12.27
2023-05-17T11:41:53.173Z,12.30
2023-05-17T11:44:30.929Z,13.63
2023-05-17T11:47:06.393Z,13.30
2023-05-17T11:49:40.191Z,10.63
2023-05-17T11:52:11.972Z,10.57
2023-05-17T11:54:46.441Z,9.60
2023-05-17T11:57:18.664Z,12.10
2023-05-17T11:59:49.417Z,10.75
2023-05-17T12:02:33.894Z,9.30
2023-05-17T12:05:04.842Z,10.40
2023-05-17T12:07:37.848Z,12.18
2023-05-17T12:10:16.835Z,10.20
2023-05-17T12:12:48.098Z,13.13
2023-05-17T12:15:22.532Z,16.73
2023-05-17T12:17:55.623Z,15.80
2023-05-17T12:20:27.007Z,23.45
2023-05-17T12:22:58.943Z,22.20
2023-05-17T12:25:32.439Z,19.50
2023-05-17T12:28:27.160Z,14.75
2023-05-17T12:31:01.504Z,16.33
2023-05-17T12:33:35.631Z,21.95
2023-05-17T12:36:07.731Z,17.05
2023-05-17T12:38:40.461Z,16.38
2023-05-17T12:41:15.599Z,18.02
2023-05-17T12:46:20.092Z,20.00
2023-05-17T12:48:52.916Z,25.10
2023-05-17T12:51:24.817Z,14.55
2023-05-17T12:53:57.195Z,31.20
2023-05-17T12:56:32.263Z,14.95
2023-05-17T13:01:42.046Z,14.82
2023-05-17T13:04:13.516Z,18.00
2023-05-17T13:06:52.174Z,17.17
2023-05-17T13:09:24.753Z,24.13
2023-05-17T13:11:59.495Z,21.27
2023-05-17T13:14:44.361Z,18.27
2023-05-17T13:17:21.294Z,14.15
2023-05-17T13:19:52.284Z,14.20
2023-05-17T13:22:24.147Z,13.55
2023-05-17T13:24:54.961Z,21.42
2023-05-17T13:27:28.385Z,17.92
2023-05-17T13:29:59.255Z,19.25
2023-05-17T13:32:30.311Z,18.05
2023-05-17T13:35:02.470Z,10.38
2023-05-17T13:37:35.420Z,13.77
2023-05-17T13:40:06.535Z,14.10
2023-05-17T13:42:40.288Z,18.75
2023-05-17T13:45:13.977Z,18.98
2023-05-17T13:47:44.990Z,17.25
2023-05-17T13:50:17.560Z,20.80
2023-05-17T13:52:48.354Z,18.98
2023-05-17T13:55:19.265Z,15.40
2023-05-17T13:57:54.451Z,19.58
2023-05-17T14:00:26.450Z,14.20
2023-05-17T14:02:57.483Z,12.75
2023-05-17T14:05:28.505Z,16.35
2023-05-17T14:07:59.694Z,21.50
2023-05-17T14:10:30.705Z,18.00
2023-05-17T14:13:04.686Z,17.67
2023-05-17T14:15:38.555Z,19.83
2023-05-17T14:18:13.589Z,15.70
2023-05-17T14:20:44.663Z,17.80
2023-05-17T14:23:15.636Z,17.67
2023-05-17T14:25:49.374Z,14.88
2023-05-17T14:28:22.817Z,13.85
2023-05-17T14:30:53.735Z,19.17
2023-05-17T14:33:24.749Z,22.42
2023-05-17T14:35:55.885Z,17.58
2023-05-17T14:38:26.712Z,17.42
2023-05-17T14:40:57.587Z,19.10
2023-05-17T14:43:31.293Z,17.17
2023-05-17T14:46:01.964Z,15.18
2023-05-17T14:48:34.217Z,16.77
2023-05-17T14:51:05.199Z,23.95
2023-05-17T14:53:36.237Z,19.73
2023-05-17T14:56:07.268Z,16.13
2023-05-17T14:58:40.792Z,14.60
2023-05-17T15:01:11.618Z,16.80
2023-05-17T15:03:42.639Z,12.25
2023-05-17T15:06:13.542Z,11.25
2023-05-17T15:08:44.427Z,17.20
2023-05-17T15:11:15.441Z,15.50
2023-05-17T15:13:49.240Z,18.75
2023-05-17T15:16:20.241Z,19.20
2023-05-17T15:18:53.371Z,14.88
2023-05-17T15:21:26.416Z,13.15
2023-05-17T15:23:58.145Z,11.63
2023-05-17T15:26:29.438Z,11.32
2023-05-17T15:29:02.856Z,13.43
2023-05-17T15:31:33.843Z,14.50
2023-05-17T15:34:05.220Z,14.15
2023-05-17T15:36:36.985Z,12.27
2023-05-17T15:39:08.106Z,16.08
2023-05-17T15:41:40.131Z,12.77
2023-05-17T15:44:13.854Z,11.30
2023-05-17T15:46:44.923Z,12.10
2023-05-17T15:49:17.918Z,14.93
2023-05-17T15:51:50.287Z,13.20
2023-05-17T15:54:21.112Z,12.50
2023-05-17T15:56:51.915Z,9.82
2023-05-17T15:59:25.271Z,14.65
2023-05-17T16:01:56.459Z,13.75
2023-05-17T16:04:27.312Z,14.98
2023-05-17T16:06:59.713Z,14.23
2023-05-17T16:09:30.601Z,10.98
2023-05-17T16:12:01.481Z,10.93
2023-05-17T16:14:36.264Z,19.08
2023-05-17T16:17:07.465Z,13.93
2023-05-17T16:19:38.384Z,12.02
2023-05-17T16:22:09.877Z,14.52
2023-05-17T16:24:40.936Z,11.95
2023-05-17T16:27:11.871Z,17.45
2023-05-17T16:29:45.328Z,14.50
2023-05-17T16:32:16.311Z,17.55
2023-05-17T16:34:47.193Z,16.13
2023-05-17T16:37:18.108Z,17.10
2023-05-17T16:39:48.923Z,13.82
2023-05-17T16:42:20.688Z,17.92
2023-05-17T16:44:54.233Z,15.60
2023-05-17T16:47:28.139Z,14.25
2023-05-17T16:50:01.682Z,13.02
2023-05-17T16:52:36.072Z,16.15
2023-05-17T16:55:07.324Z,12.50
2023-05-17T16:57:38.184Z,12.20
2023-05-17T17:03:16.788Z,13.82
2023-05-17T17:08:52.739Z,14.25
2023-05-17T17:11:24.745Z,16.08
2023-05-17T17:17:00.967Z,12.45
2023-05-17T17:19:34.640Z,10.45
2023-05-17T17:22:06.054Z,10.57
2023-05-17T17:24:37.353Z,14.18
2023-05-17T17:27:08.734Z,11.02
2023-05-17T17:29:39.526Z,12.00
2023-05-17T17:32:11.907Z,10.10
2023-05-17T17:34:45.658Z,10.13
2023-05-17T17:37:16.619Z,9.23
2023-05-17T17:39:47.421Z,10.65
2023-05-17T17:42:18.282Z,6.82
2023-05-17T17:44:49.050Z,14.40
2023-05-17T17:47:20.249Z,11.95
2023-05-17T17:49:53.635Z,12.25
2023-05-17T17:52:24.549Z,11.95
2023-05-17T17:54:55.409Z,11.80
2023-05-17T17:57:26.307Z,12.07
2023-05-17T17:59:58.405Z,14.32
2023-05-17T18:02:29.329Z,12.90
2023-05-17T18:05:02.945Z,11.02
2023-05-17T18:10:05.955Z,7.70
2023-05-17T18:12:37.023Z,10.70
2023-05-17T18:15:08.859Z,12.23
2023-05-17T18:17:39.714Z,7.07
2023-05-17T18:20:13.923Z,14.32
2023-05-17T18:22:44.848Z,10.90
2023-05-17T18:25:15.805Z,11.00
2023-05-17T18:27:46.741Z,9.15
2023-05-17T18:30:17.837Z,9.93
2023-05-17T18:32:49.092Z,12.25
2023-05-17T18:35:22.684Z,11.45
2023-05-17T18:37:53.667Z,7.45
2023-05-17T18:40:24.544Z,9.48
2023-05-17T18:42:55.465Z,7.78
2023-05-17T18:45:26.380Z,9.80
2023-05-17T18:47:57.408Z,10.48
2023-05-17T18:50:31.258Z,10.93
2023-05-17T18:53:02.946Z,9.68
2023-05-17T18:55:33.803Z,8.05
2023-05-17T18:58:04.965Z,9.55
2023-05-17T19:00:36.028Z,8.80
2023-05-17T19:03:07.427Z,10.70
2023-05-17T19:05:40.916Z,10.48
2023-05-17T19:08:11.806Z,12.20
2023-05-17T19:10:42.808Z,11.50
2023-05-17T19:13:14.042Z,14.60
2023-05-17T19:15:45.234Z,8.88
2023-05-17T19:18:16.892Z,9.02
2023-05-17T19:20:51.236Z,12.15
2023-05-17T19:23:22.158Z,7.72
2023-05-17T19:25:53.852Z,11.25
2023-05-17T19:28:24.843Z,10.68
2023-05-17T19:30:56.076Z,10.98
2023-05-17T19:33:27.408Z,13.38
2023-05-17T19:36:01.096Z,11.75
2023-05-17T19:38:33.613Z,9.55
2023-05-17T19:41:07.826Z,13.30
2023-05-17T19:43:39.002Z,11.48
2023-05-17T19:46:11.946Z,11.63
2023-05-17T19:48:45.891Z,12.90
2023-05-17T19:51:20.665Z,11.43
2023-05-17T19:53:53.535Z,15.45
2023-05-17T19:56:26.670Z,12.73
2023-05-17T19:58:57.740Z,11.82
2023-05-17T20:01:28.741Z,13.77
2023-05-17T20:03:59.816Z,13.65
2023-05-17T20:06:33.522Z,13.05
2023-05-17T20:09:04.683Z,16.63
2023-05-17T20:11:35.933Z,13.38
2023-05-17T20:14:07.157Z,15.77
2023-05-17T20:16:38.129Z,13.80
2023-05-17T20:19:09.032Z,11.82
2023-05-17T20:21:42.670Z,12.23
2023-05-17T20:24:13.759Z,11.90
2023-05-17T20:26:47.169Z,13.25
2023-05-17T20:29:18.065Z,15.15
2023-05-17T20:31:49.012Z,18.92
2023-05-17T20:34:19.851Z,12.70
2023-05-17T20:36:53.858Z,15.70
2023-05-17T20:39:28.229Z,11.60
2023-05-17T20:42:01.576Z,13.68
2023-05-17T20:44:33.610Z,12.55
2023-05-17T20:47:06.366Z,12.18
2023-05-17T20:49:37.235Z,17.17
2023-05-17T20:52:10.726Z,14.63
2023-05-17T20:54:41.585Z,16.65
2023-05-17T20:57:12.442Z,16.30
2023-05-17T20:59:43.201Z,15.60
2023-05-17T21:02:14.260Z,12.73
2023-05-17T21:04:45.058Z,8.43
2023-05-17T21:07:20.239Z,9.45
2023-05-17T21:09:51.013Z,11.82
2023-05-17T21:12:23.813Z,10.18
2023-05-17T21:15:14.500Z,11.35
2023-05-17T21:17:45.937Z,10.10
2023-05-17T21:20:17.448Z,7.57
2023-05-17T21:22:50.938Z,11.45
2023-05-17T21:25:21.902Z,7.85
2023-05-17T21:27:53.142Z,12.18
2023-05-17T21:30:24.223Z,10.43
2023-05-17T21:32:55.195Z,7.82
2023-05-17T21:35:26.416Z,12.20
2023-05-17T21:38:00.001Z,8.13
2023-05-17T21:40:31.183Z,9.55
2023-05-17T21:43:02.234Z,12.23
2023-05-17T21:45:33.159Z,10.10
2023-05-17T21:48:04.221Z,9.40
2023-05-17T21:50:35.128Z,15.15
2023-05-17T21:53:08.701Z,8.20
2023-05-17T21:55:56.340Z,7.38
2023-05-17T21:58:30.922Z,10.00
2023-05-17T22:01:01.976Z,6.53
2023-05-17T22:03:33.247Z,6.90
2023-05-17T22:06:04.738Z,7.70
2023-05-17T22:08:38.309Z,5.55
2023-05-17T22:11:09.589Z,8.90
2023-05-17T22:13:42.559Z,6.22
2023-05-17T22:16:14.355Z,7.22
2023-05-17T22:18:45.739Z,10.80
2023-05-17T22:21:17.239Z,8.45
2023-05-17T22:23:50.971Z,9.20
2023-05-17T22:26:22.154Z,8.30
2023-05-17T22:28:54.844Z,7.30
2023-05-17T22:31:26.716Z,8.73
2023-05-17T22:33:57.727Z,10.73
2023-05-17T22:36:28.523Z,9.23
2023-05-17T22:39:02.369Z,6.57
2023-05-17T22:41:33.160Z,7.70
2023-05-17T22:44:04.203Z,11.20
2023-05-17T22:46:35.495Z,8.15
2023-05-17T22:49:06.345Z,8.65
2023-05-17T22:51:37.384Z,9.15
2023-05-17T22:54:10.985Z,7.47
2023-05-17T22:56:41.910Z,7.30
2023-05-17T22:59:12.692Z,9.27
2023-05-17T23:01:43.677Z,7.25
2023-05-17T23:04:14.713Z,8.13
2023-05-17T23:06:45.571Z,9.98
2023-05-17T23:09:19.096Z,10.38
2023-05-17T23:11:50.352Z,9.68
2023-05-17T23:14:22.032Z,7.00
2023-05-17T23:16:53.224Z,12.27
2023-05-17T23:19:24.120Z,7.15
2023-05-17T23:21:55.105Z,6.40
2023-05-17T23:24:28.649Z,6.80
2023-05-17T23:26:59.389Z,8.52
2023-05-17T23:29:30.160Z,6.45
2023-05-17T23:32:01.114Z,10.90
2023-05-17T23:34:32.097Z,7.75
2023-05-17T23:37:03.260Z,8.25
2023-05-17T23:39:36.809Z,6.72
2023-05-17T23:42:10.568Z,10.40
2023-05-17T23:44:42.366Z,8.88
2023-05-17T23:47:13.422Z,9.38
2023-05-17T23:49:44.268Z,8.63
2023-05-17T23:52:15.377Z,8.90
2023-05-17T23:54:50.119Z,8.38
2023-05-17T23:57:20.989Z,6.75
2023-05-17T23:59:51.776Z,6.45
